Time;durP1;ratioP1;P1;durP2;ratioP2;P2;SDS_P1;SDS_P2;PMS_P1;PMS_P2;Temp;Humidity;BMP_temperature;BMP_pressure;BME280_temperature;BME280_humidity;BME280_pressure;Samples;Min_cycle;Max_cycle;Signal;HPM_P1;HPM_P2
2022/01/22 00:00:48;;;;;;;;;41.00;37.00;;;;;6.79;61.61;103558.41;5123426;27;49774;-64
2022/01/22 00:03:14;;;;;;;;;39.25;37.75;;;;;6.86;62.18;103560.72;5125767;27;49625;-63
2022/01/22 00:05:39;;;;;;;;;46.00;37.25;;;;;6.79;62.30;103534.91;5094725;27;49886;-63
2022/01/22 00:08:05;;;;;;;;;30.75;30.25;;;;;6.84;62.58;103535.25;5115873;27;49774;-64
2022/01/22 00:10:32;;;;;;;;;27.25;25.50;;;;;6.83;62.20;103542.19;5118847;27;49558;-63
2022/01/22 00:15:27;;;;;;;;;29.00;28.00;;;;;6.87;61.05;103543.38;5118878;27;50365;-63
2022/01/22 00:17:53;;;;;;;;;25.25;25.25;;;;;6.84;60.88;103544.00;5121715;27;49560;-64
2022/01/22 00:20:20;;;;;;;;;30.25;28.25;;;;;6.72;61.73;103516.91;5120763;27;49729;-63
2022/01/22 00:22:46;;;;;;;;;27.00;24.00;;;;;6.79;61.64;103534.91;5110801;27;50064;-64
2022/01/22 00:25:13;;;;;;;;;25.50;23.75;;;;;6.72;61.61;103523.84;5116627;27;50541;-64
2022/01/22 00:27:40;;;;;;;;;23.25;22.25;;;;;6.75;61.50;103525.00;5126090;27;49399;-63
2022/01/22 00:30:08;;;;;;;;;28.25;25.50;;;;;6.69;62.24;103506.25;5116421;27;50005;-63
2022/01/22 00:32:34;;;;;;;;;25.50;21.50;;;;;6.87;62.36;103541.66;5107142;27;49892;-63
2022/01/22 00:35:00;;;;;;;;;24.25;23.25;;;;;6.73;61.53;103504.78;5124265;27;50779;-63
2022/01/22 00:37:25;;;;;;;;;23.00;19.50;;;;;6.85;61.45;103510.97;5123297;27;49624;-63
2022/01/22 00:39:51;;;;;;;;;27.75;22.75;;;;;6.93;62.11;103529.84;5112334;27;49726;-63
2022/01/22 00:42:17;;;;;;;;;28.00;24.50;;;;;6.80;61.60;103513.22;5115580;27;49652;-63
2022/01/22 00:44:43;;;;;;;;;22.25;20.75;;;;;6.94;62.23;103534.28;5123689;27;49827;-63
2022/01/22 00:47:09;;;;;;;;;25.25;21.25;;;;;6.80;61.29;103521.06;5125464;27;49789;-62
2022/01/22 00:49:36;;;;;;;;;22.75;21.00;;;;;6.91;62.13;103526.22;5121244;27;50000;-63
2022/01/22 00:52:03;;;;;;;;;26.75;20.00;;;;;6.96;62.23;103537.97;5120046;27;49413;-63
2022/01/22 00:54:29;;;;;;;;;24.75;23.00;;;;;6.91;61.84;103524.53;5125601;27;49950;-63
2022/01/22 00:56:54;;;;;;;;;20.75;20.50;;;;;6.83;61.26;103509.94;5116178;27;49705;-63
2022/01/22 00:59:19;;;;;;;;;26.00;24.25;;;;;6.84;61.33;103512.66;5118782;27;49618;-63
2022/01/22 01:01:45;;;;;;;;;28.75;25.25;;;;;6.92;61.60;103530.66;5117590;27;49910;-63
2022/01/22 01:04:11;;;;;;;;;30.00;26.00;;;;;6.89;61.36;103526.09;5115036;27;50914;-63
2022/01/22 01:06:38;;;;;;;;;28.00;26.50;;;;;6.80;61.90;103523.66;5111834;27;49747;-64
2022/01/22 01:09:06;;;;;;;;;29.00;27.75;;;;;6.95;61.64;103539.66;5114615;27;49873;-63
2022/01/22 01:11:34;;;;;;;;;31.25;28.75;;;;;6.40;62.24;103440.34;5115522;27;49771;-63
2022/01/22 01:14:02;;;;;;;;;26.00;22.75;;;;;6.81;61.27;103514.13;5123994;27;50238;-64
2022/01/22 01:35:27;;;;;;;;;23.00;19.75;;;;;6.91;61.94;103513.16;5133961;27;50481;-63
2022/01/22 01:37:54;;;;;;;;;21.75;19.75;;;;;6.95;61.33;103524.00;5145216;27;49612;-63
2022/01/22 01:40:22;;;;;;;;;25.25;22.50;;;;;6.88;61.61;103509.53;5139221;27;49575;-63
2022/01/22 01:43:04;;;;;;;;;22.00;19.50;;;;;6.92;62.43;103509.75;5143241;27;50058;-64
2022/01/22 01:45:30;;;;;;;;;24.50;20.25;;;;;6.59;61.41;103447.16;5140069;27;49773;-63
2022/01/22 01:47:59;;;;;;;;;18.00;17.75;;;;;6.97;61.43;103514.56;5134258;27;49763;-64
2022/01/22 01:50:25;;;;;;;;;20.75;19.50;;;;;6.85;61.10;103492.69;5130845;27;49677;-63
2022/01/22 01:53:06;;;;;;;;;23.00;21.00;;;;;6.95;61.53;103513.56;5137185;27;49548;-63
2022/01/22 01:55:48;;;;;;;;;26.00;26.00;;;;;6.48;61.73;103442.81;5141471;27;50245;-63
2022/01/22 01:58:14;;;;;;;;;28.00;27.50;;;;;6.77;61.33;103492.09;5132736;27;49911;-64
2022/01/22 02:00:39;;;;;;;;;22.25;20.75;;;;;6.87;61.43;103520.78;5132859;27;49795;-63
2022/01/22 02:03:05;;;;;;;;;22.00;20.00;;;;;6.92;62.43;103521.13;5134298;27;49918;-63
2022/01/22 02:05:32;;;;;;;;;27.00;24.25;;;;;6.90;62.26;103520.09;5134012;27;50282;-63
2022/01/22 02:07:58;;;;;;;;;22.25;22.25;;;;;6.96;61.78;103524.91;5131203;27;49765;-63
2022/01/22 02:10:28;;;;;;;;;27.50;23.50;;;;;6.93;62.41;103520.31;5133624;27;49738;-63
2022/01/22 02:23:46;;;;;;;;;24.00;20.25;;;;;6.85;62.64;103501.47;5138924;27;49729;-63
2022/01/22 02:26:14;;;;;;;;;23.50;20.75;;;;;6.74;61.73;103484.00;5140078;27;50564;-64
2022/01/22 02:28:40;;;;;;;;;19.75;17.00;;;;;6.95;62.13;103515.22;5137027;27;49853;-63
2022/01/22 02:31:15;;;;;;;;;21.00;19.25;;;;;6.81;61.99;103486.31;5102360;27;49727;-63
2022/01/22 02:36:34;;;;;;;;;22.25;21.00;;;;;6.95;61.88;103515.22;5117163;27;50184;-64
2022/01/22 02:41:28;;;;;;;;;26.25;22.00;;;;;6.91;62.37;103507.94;5119720;27;49745;-63
2022/01/22 02:43:55;;;;;;;;;21.75;20.50;;;;;6.95;62.09;103512.59;5122717;27;50042;-63
2022/01/22 02:46:24;;;;;;;;;19.25;17.25;;;;;6.93;62.72;103507.28;5126714;27;50556;-63
2022/01/22 02:48:54;;;;;;;;;20.50;19.75;;;;;6.97;61.77;103505.84;5118908;27;49877;-63
2022/01/22 02:51:25;;;;;;;;;22.00;21.00;;;;;6.87;61.82;103486.81;5117048;27;49769;-63
2022/01/22 02:53:54;;;;;;;;;22.00;19.50;;;;;6.96;62.01;103502.31;5119664;27;49957;-63
2022/01/22 02:56:21;;;;;;;;;20.00;18.75;;;;;6.90;62.74;103483.53;5135181;27;49861;-63
2022/01/22 02:58:47;;;;;;;;;27.00;24.50;;;;;6.87;61.98;103472.84;5137960;27;49806;-63
2022/01/22 03:01:15;;;;;;;;;20.50;20.50;;;;;6.81;62.59;103465.44;5143599;27;49337;-64
2022/01/22 03:03:41;;;;;;;;;20.75;19.25;;;;;6.94;62.64;103479.44;5134170;27;49621;-63
2022/01/22 03:06:06;;;;;;;;;23.00;20.00;;;;;7.00;62.61;103503.44;5133705;27;50977;-63
2022/01/22 03:08:32;;;;;;;;;23.00;18.00;;;;;6.94;61.83;103474.22;5101786;27;49777;-63
2022/01/22 03:11:00;;;;;;;;;18.25;18.25;;;;;6.98;62.06;103487.66;5141367;27;49660;-63
2022/01/22 03:29:11;;;;;;;;;23.00;19.50;;;;;6.76;62.18;103471.09;5133255;27;49525;-64
2022/01/22 03:31:37;;;;;;;;;19.00;15.75;;;;;6.54;61.53;103434.53;5138981;27;49890;-63
2022/01/22 03:34:04;;;;;;;;;17.75;17.75;;;;;6.79;62.23;103476.56;5139484;27;49794;-64
2022/01/22 03:36:32;;;;;;;;;23.00;20.00;;;;;6.87;61.90;103507.72;5134793;27;50000;-63
2022/01/22 03:38:59;;;;;;;;;24.25;18.25;;;;;6.91;62.51;103501.03;5114514;27;49999;-63
2022/01/22 03:41:24;;;;;;;;;19.00;19.00;;;;;6.66;62.68;103456.41;5141526;27;49899;-63
2022/01/22 03:43:54;;;;;;;;;23.50;17.00;;;;;6.89;62.19;103492.16;5146253;27;49857;-63
2022/01/22 03:46:19;;;;;;;;;22.75;18.75;;;;;6.82;62.59;103489.84;5140845;27;49777;-63
2022/01/22 03:48:45;;;;;;;;;19.50;16.50;;;;;6.85;62.31;103498.84;5136112;27;49740;-63
2022/01/22 03:51:11;;;;;;;;;15.50;14.25;;;;;6.91;63.13;103511.47;5136301;27;49988;-64
2022/01/22 03:53:37;;;;;;;;;21.00;19.00;;;;;6.54;62.31;103443.25;5136487;27;49742;-63
2022/01/22 03:56:04;;;;;;;;;22.00;17.00;;;;;6.80;62.72;103475.75;5135243;27;50820;-63
2022/01/22 03:58:36;;;;;;;;;17.75;15.75;;;;;6.96;62.26;103509.22;5096991;27;49762;-64
2022/01/22 04:01:30;;;;;;;;;17.50;17.50;;;;;6.76;62.05;103472.00;5134327;27;49939;-64
2022/01/22 04:09:25;;;;;;;;;21.00;16.75;;;;;6.62;63.37;103458.63;5135832;27;49710;-63
2022/01/22 04:11:52;;;;;;;;;19.00;16.50;;;;;6.86;62.95;103487.63;5135828;27;49552;-63
2022/01/22 04:14:22;;;;;;;;;18.25;16.75;;;;;6.74;62.29;103462.22;5136019;27;49802;-64
2022/01/22 04:17:07;;;;;;;;;16.50;15.00;;;;;6.97;62.84;103505.84;5134705;27;49724;-63
2022/01/22 04:25:02;;;;;;;;;19.25;15.25;;;;;6.97;63.06;103488.47;5138930;27;49760;-64
2022/01/22 04:27:28;;;;;;;;;20.00;20.00;;;;;6.93;62.64;103481.16;5101277;27;52737;-68
2022/01/22 04:29:57;;;;;;;;;19.50;18.25;;;;;6.90;62.83;103478.31;5141953;27;49554;-64
2022/01/22 04:32:25;;;;;;;;;14.50;13.25;;;;;7.02;63.21;103496.63;5123260;27;49706;-63
2022/01/22 04:34:50;;;;;;;;;22.25;18.25;;;;;6.94;63.42;103476.84;5100296;27;49857;-63
2022/01/22 04:37:18;;;;;;;;;21.50;19.25;;;;;6.97;62.93;103483.25;5118817;27;50787;-63
2022/01/22 04:39:47;;;;;;;;;27.00;19.25;;;;;6.93;63.18;103481.16;5124075;27;49490;-63
2022/01/22 04:42:16;;;;;;;;;27.25;22.50;;;;;6.87;63.31;103462.41;5124848;27;50003;-63
2022/01/22 04:44:58;;;;;;;;;16.00;15.25;;;;;7.09;63.13;103492.03;5112643;27;49712;-63
2022/01/22 04:47:35;;;;;;;;;18.25;17.75;;;;;7.03;63.40;103488.00;5135579;27;49782;-63
2022/01/22 04:55:34;;;;;;;;;20.75;20.00;;;;;7.08;62.68;103499.75;5111743;27;50007;-63
2022/01/22 04:58:04;;;;;;;;;17.50;17.50;;;;;6.99;62.84;103484.25;5128538;27;49843;-62
2022/01/22 05:00:34;;;;;;;;;19.25;19.00;;;;;7.08;62.11;103499.75;5126040;27;49699;-64
2022/01/22 05:03:01;;;;;;;;;19.75;14.75;;;;;6.89;62.34;103469.56;5114226;27;49801;-63
2022/01/22 05:05:27;;;;;;;;;17.00;17.00;;;;;6.88;63.10;103467.75;5113208;27;50018;-63
2022/01/22 05:07:52;;;;;;;;;21.75;17.50;;;;;7.00;62.32;103488.69;5115260;27;51335;-63
2022/01/22 05:10:18;;;;;;;;;21.25;16.50;;;;;7.12;62.87;103504.41;5115509;27;49903;-63
2022/01/22 05:12:43;;;;;;;;;21.25;18.00;;;;;7.10;63.13;103496.44;5115049;27;49924;-63
2022/01/22 05:15:10;;;;;;;;;16.00;16.00;;;;;7.09;62.58;103494.63;5113875;27;49722;-63
2022/01/22 05:17:38;;;;;;;;;21.00;16.00;;;;;6.89;62.10;103461.72;5114883;27;49928;-63
2022/01/22 05:20:17;;;;;;;;;22.25;19.75;;;;;7.06;62.82;103494.41;5114984;27;49756;-63
2022/01/22 05:25:19;;;;;;;;;28.00;24.00;;;;;6.95;62.67;103465.59;5132429;27;49787;-63
2022/01/22 05:33:15;;;;;;;;;19.00;18.75;;;;;7.03;62.47;103483.69;5135039;27;49806;-63
2022/01/22 05:38:32;;;;;;;;;21.50;20.50;;;;;6.65;63.03;103419.72;5134871;27;49781;-66
2022/01/22 05:40:57;;;;;;;;;24.50;22.00;;;;;7.05;62.45;103505.66;5139572;27;49858;-64
2022/01/22 05:43:22;;;;;;;;;20.00;19.50;;;;;7.07;62.17;103503.16;5136802;27;49804;-63
2022/01/22 05:45:47;;;;;;;;;17.75;16.75;;;;;7.02;61.91;103496.63;5137320;27;49741;-63
2022/01/22 05:48:13;;;;;;;;;25.75;24.25;;;;;6.96;62.28;103473.59;5143994;27;49796;-65
2022/01/22 05:50:52;;;;;;;;;26.25;23.50;;;;;6.80;62.20;103461.00;5108225;27;49649;-65
2022/01/22 05:53:42;;;;;;;;;23.25;22.50;;;;;6.89;62.65;103472.19;5134706;27;49775;-63
2022/01/22 06:01:38;;;;;;;;;27.50;23.50;;;;;6.99;61.91;103497.31;5134425;27;49817;-63
2022/01/22 06:04:03;;;;;;;;;30.00;24.00;;;;;6.86;61.75;103474.56;5138207;27;49645;-62
2022/01/22 06:06:29;;;;;;;;;24.75;24.00;;;;;7.00;61.79;103503.44;5143095;27;49649;-63
2022/01/22 06:08:56;;;;;;;;;23.25;21.00;;;;;6.97;62.40;103506.75;5134547;27;50741;-64
2022/01/22 06:11:24;;;;;;;;;33.00;26.00;;;;;6.95;61.98;103505.72;5137314;27;49605;-63
2022/01/22 06:13:51;;;;;;;;;30.75;27.25;;;;;7.10;62.71;103529.50;5137444;27;49870;-63
2022/01/22 06:16:19;;;;;;;;;22.25;21.50;;;;;7.07;62.06;103526.66;5137760;27;49671;-63
2022/01/22 06:18:45;;;;;;;;;30.50;29.25;;;;;7.07;62.04;103526.66;5134175;27;50641;-64
2022/01/22 06:21:10;;;;;;;;;32.75;28.00;;;;;6.99;62.49;103506.84;5144196;27;49218;-64
2022/01/22 06:23:38;;;;;;;;;30.75;25.75;;;;;7.05;61.89;103520.41;5146240;27;49720;-64
2022/01/22 06:26:05;;;;;;;;;24.50;22.75;;;;;7.11;62.14;103519.16;5138860;27;49798;-65
2022/01/22 06:28:31;;;;;;;;;34.00;26.75;;;;;6.97;62.06;103503.22;5133844;27;49855;-64
2022/01/22 06:30:57;;;;;;;;;26.25;21.75;;;;;7.02;61.60;103504.47;5137260;27;49676;-63
2022/01/22 06:33:23;;;;;;;;;31.25;29.00;;;;;7.02;61.87;103504.47;5136596;27;49788;-63
2022/01/22 06:35:49;;;;;;;;;29.75;27.00;;;;;7.14;62.86;103518.50;5141569;27;49905;-65
2022/01/22 06:38:14;;;;;;;;;28.50;24.75;;;;;7.12;61.94;103514.84;5146159;27;50783;-63
2022/01/22 06:43:06;;;;;;;;;33.75;28.75;;;;;7.13;62.20;103521.91;5136592;27;49661;-63
2022/01/22 06:45:32;;;;;;;;;25.25;24.75;;;;;7.01;62.27;103511.41;5134325;27;49755;-63
2022/01/22 06:47:57;;;;;;;;;34.50;29.25;;;;;6.87;62.53;103481.59;5138888;27;49677;-63
2022/01/22 06:50:23;;;;;;;;;31.50;29.25;;;;;6.97;62.22;103498.00;5143980;27;49661;-63
2022/01/22 06:52:55;;;;;;;;;26.50;24.50;;;;;7.14;62.12;103529.88;5125577;27;49493;-63
2022/01/22 06:55:30;;;;;;;;;31.50;27.00;;;;;6.91;61.63;103498.41;5139425;27;49727;-63
2022/01/22 06:57:55;;;;;;;;;38.00;34.25;;;;;6.93;62.10;103495.91;5135514;27;50078;-64
2022/01/22 07:00:21;;;;;;;;;40.00;30.25;;;;;6.70;61.60;103455.84;5107829;27;49668;-63
2022/01/22 07:02:46;;;;;;;;;26.25;24.50;;;;;7.12;61.44;103534.06;5139338;27;49849;-63
2022/01/22 07:05:11;;;;;;;;;28.25;26.75;;;;;7.03;62.50;103521.97;5142336;27;49720;-62
2022/01/22 07:07:37;;;;;;;;;29.25;28.00;;;;;7.08;61.90;103521.56;5132784;27;50861;-63
2022/01/22 07:10:03;;;;;;;;;34.50;27.00;;;;;6.98;61.56;103500.72;5136470;27;49748;-63
2022/01/22 07:12:28;;;;;;;;;34.50;31.25;;;;;6.95;61.61;103505.72;5137210;27;49823;-65
2022/01/22 07:14:54;;;;;;;;;34.75;29.75;;;;;6.60;62.06;103443.78;5138732;27;49738;-64
2022/01/22 07:17:19;;;;;;;;;33.50;30.00;;;;;7.16;62.45;103535.22;5140504;27;49608;-63
2022/01/22 07:19:45;;;;;;;;;37.25;26.25;;;;;7.08;62.33;103523.25;5133345;27;49718;-63
2022/01/22 07:24:54;;;;;;;;;33.50;28.25;;;;;7.11;62.09;103533.94;5138627;27;49689;-63
2022/01/22 07:27:20;;;;;;;;;30.50;29.50;;;;;7.07;61.54;103531.88;5135523;27;50672;-63
2022/01/22 07:29:48;;;;;;;;;35.00;31.50;;;;;7.15;62.83;103546.47;5136435;27;49700;-63
2022/01/22 07:32:25;;;;;;;;;33.50;29.50;;;;;7.02;62.05;103522.75;5096373;27;49819;-64
2022/01/22 07:34:50;;;;;;;;;34.75;29.50;;;;;7.04;62.35;103527.31;5135812;27;49648;-63
2022/01/22 07:37:15;;;;;;;;;34.75;33.25;;;;;7.07;62.81;103532.78;5135762;27;50945;-63
2022/01/22 07:39:41;;;;;;;;;32.25;26.50;;;;;7.00;62.50;103516.50;5131205;27;49965;-63
2022/01/22 07:42:07;;;;;;;;;29.25;28.75;;;;;6.98;62.23;103516.41;5126317;27;49869;-64
2022/01/22 07:44:32;;;;;;;;;34.00;30.25;;;;;6.99;62.41;103514.69;5120711;27;49987;-63
2022/01/22 07:46:57;;;;;;;;;34.00;29.25;;;;;7.14;62.03;103544.63;5122481;27;50300;-63
2022/01/22 07:49:23;;;;;;;;;39.75;33.50;;;;;7.14;61.98;103537.72;5115602;27;50042;-63
2022/01/22 07:51:48;;;;;;;;;45.50;40.00;;;;;7.14;62.12;103539.38;5110739;27;49985;-64
2022/01/22 07:54:14;;;;;;;;;49.25;37.25;;;;;7.18;62.19;103546.69;5113796;27;50216;-64
2022/01/22 07:56:39;;;;;;;;;39.50;36.50;;;;;6.91;62.29;103501.03;5115377;27;50408;-71
2022/01/22 07:59:05;;;;;;;;;38.75;34.75;;;;;7.14;61.88;103544.63;5121707;27;49958;-63
2022/01/22 08:01:30;;;;;;;;;37.00;34.25;;;;;7.13;61.76;103533.25;5102512;27;49621;-72
2022/01/22 08:03:56;;;;;;;;;31.75;30.75;;;;;7.21;61.42;103552.16;5132800;27;49554;-65
2022/01/22 08:06:21;;;;;;;;;32.75;29.75;;;;;7.22;61.89;103548.75;5135608;27;49788;-65
2022/01/22 08:08:46;;;;;;;;;32.25;31.75;;;;;7.16;61.34;103538.75;5145342;27;49366;-65
2022/01/22 08:11:12;;;;;;;;;39.00;33.25;;;;;7.07;60.66;103537.09;5146301;27;49993;-68
2022/01/22 08:13:37;;;;;;;;;34.75;30.00;;;;;6.97;61.41;103525.03;5137665;27;49561;-65
2022/01/22 08:16:02;;;;;;;;;34.00;32.00;;;;;7.13;61.67;103541.09;5118492;27;49547;-70
2022/01/22 08:18:28;;;;;;;;;32.00;29.25;;;;;7.11;61.41;103544.38;5124749;27;49926;-64
2022/01/22 08:20:53;;;;;;;;;21.50;21.00;;;;;7.20;61.64;103557.25;5115604;27;49915;-66
2022/01/22 08:23:20;;;;;;;;;33.50;32.50;;;;;7.19;61.84;103551.13;5127271;27;49777;-64
2022/01/22 08:25:47;;;;;;;;;36.75;33.00;;;;;7.14;61.58;103542.00;5138311;27;49658;-64
2022/01/22 08:31:02;;;;;;;;;47.00;40.00;;;;;7.26;61.32;103557.75;5134301;27;49676;-64
2022/01/22 08:36:11;;;;;;;;;30.00;28.50;;;;;7.27;61.67;103554.34;5123488;27;49779;-65
2022/01/22 08:38:36;;;;;;;;;35.00;32.75;;;;;6.86;61.55;103482.41;5118938;27;50001;-65
2022/01/22 08:41:02;;;;;;;;;45.25;38.25;;;;;7.08;60.93;103518.03;5118286;27;49944;-77
2022/01/22 08:43:28;;;;;;;;;35.25;32.75;;;;;7.50;60.87;103593.63;5105515;27;49868;-65
2022/01/22 08:45:54;;;;;;;;;33.00;32.00;;;;;7.08;60.70;103513.72;5116424;27;49864;-74
2022/01/22 08:48:21;;;;;;;;;32.00;28.75;;;;;7.41;61.35;103570.31;5106411;27;49856;-68
2022/01/22 08:50:46;;;;;;;;;30.75;29.25;;;;;7.52;60.64;103592.06;5117399;27;49841;-66
2022/01/22 08:53:12;;;;;;;;;36.75;32.25;;;;;7.46;60.06;103594.22;5118542;27;49622;-70
2022/01/22 08:55:37;;;;;;;;;34.00;29.75;;;;;7.38;61.17;103577.00;5097422;27;51331;-71
2022/01/22 08:58:05;;;;;;;;;37.00;32.75;;;;;7.47;60.37;103591.72;5108706;27;50201;-69
2022/01/22 09:00:30;;;;;;;;;29.50;29.50;;;;;7.43;60.04;103573.97;5119373;27;49869;-66
2022/01/22 09:02:57;;;;;;;;;28.75;28.75;;;;;7.51;60.55;103602.38;5128878;27;49635;-65
2022/01/22 09:05:30;;;;;;;;;30.50;25.25;;;;;7.56;60.05;103620.28;5118115;27;50865;-66
2022/01/22 09:07:56;;;;;;;;;37.75;33.25;;;;;7.52;60.46;103606.81;5122319;27;49912;-75
2022/01/22 09:10:21;;;;;;;;;39.25;37.25;;;;;7.39;60.36;103584.97;5112134;27;49802;-65
2022/01/22 09:12:47;;;;;;;;;37.50;33.50;;;;;7.41;60.56;103572.00;5125245;27;49744;-69
2022/01/22 09:15:12;;;;;;;;;30.00;28.75;;;;;7.55;60.40;103599.25;5124336;27;49933;-64
2022/01/22 09:17:37;;;;;;;;;43.25;33.75;;;;;7.57;59.07;103606.41;5115993;27;49895;-65
2022/01/22 09:20:09;;;;;;;;;34.50;30.00;;;;;7.41;60.34;103572.00;5118738;27;50444;-65
2022/01/22 09:22:34;;;;;;;;;32.75;29.00;;;;;7.64;59.42;103610.44;5131549;27;50788;-63
2022/01/22 09:24:59;;;;;;;;;37.00;33.00;;;;;7.66;59.10;103606.22;5126376;27;49607;-64
2022/01/22 09:27:25;;;;;;;;;30.00;29.25;;;;;7.69;59.27;103612.59;5119674;27;49701;-64
2022/01/22 09:29:50;;;;;;;;;36.00;33.75;;;;;7.66;58.79;103614.97;5113914;27;49801;-65
2022/01/22 09:32:16;;;;;;;;;36.00;34.25;;;;;7.64;59.27;103611.34;5117939;27;49789;-66
2022/01/22 09:34:41;;;;;;;;;35.00;27.00;;;;;7.52;59.36;103601.59;5114508;27;51230;-67
2022/01/22 09:37:06;;;;;;;;;40.50;30.50;;;;;7.61;60.33;103602.31;5119702;27;49706;-66
2022/01/22 09:39:32;;;;;;;;;39.00;32.50;;;;;7.77;60.06;103621.03;5118481;27;49659;-66
2022/01/22 09:41:58;;;;;;;;;31.50;28.50;;;;;7.85;58.43;103634.72;5113164;27;49787;-64
2022/01/22 09:44:23;;;;;;;;;37.00;35.00;;;;;7.83;58.36;103634.59;5117887;27;49832;-66
2022/01/22 09:46:51;;;;;;;;;29.25;29.00;;;;;7.82;59.40;103622.31;5115256;27;49725;-65
2022/01/22 09:49:16;;;;;;;;;35.75;30.75;;;;;7.69;59.36;103591.66;5096565;27;49869;-71
2022/01/22 09:51:41;;;;;;;;;32.00;28.50;;;;;7.83;59.19;103615.38;5121958;27;49658;-72
2022/01/22 09:54:10;;;;;;;;;43.00;38.25;;;;;7.88;58.49;103620.16;5120227;27;50222;-72
2022/01/22 09:56:41;;;;;;;;;38.75;32.75;;;;;7.94;59.05;103620.63;5136759;27;49449;-71
2022/01/22 09:59:10;;;;;;;;;39.25;33.50;;;;;7.96;58.23;103621.66;5131524;27;49824;-71
2022/01/22 10:01:36;;;;;;;;;40.75;34.25;;;;;8.06;59.26;103635.44;5131847;27;49565;-70
2022/01/22 10:04:05;;;;;;;;;37.00;33.50;;;;;8.12;58.97;103638.53;5131467;27;49480;-71
2022/01/22 10:06:33;;;;;;;;;43.50;35.50;;;;;8.13;58.67;103636.03;5132020;27;49404;-71
2022/01/22 10:09:24;;;;;;;;;35.50;34.50;;;;;8.16;59.19;103636.25;5129024;27;49765;-72
2022/01/22 10:12:10;;;;;;;;;32.75;31.00;;;;;8.20;58.95;103645.25;5129726;27;49764;-72
2022/01/22 10:15:08;;;;;;;;;34.75;31.25;;;;;8.24;58.50;103647.31;5139271;27;50599;-71
2022/01/22 10:18:06;;;;;;;;;52.50;45.25;;;;;8.28;58.52;103644.13;5134330;27;49757;-72
2022/01/22 10:20:40;;;;;;;;;39.50;35.25;;;;;8.26;59.18;103630.03;5067993;27;50025;-72
2022/01/22 10:23:19;;;;;;;;;55.00;44.50;;;;;8.14;58.88;103621.25;5116129;27;49905;-71
2022/01/22 10:25:52;;;;;;;;;37.25;29.75;;;;;8.17;57.82;103640.69;5117562;27;50786;-72
2022/01/22 10:28:22;;;;;;;;;45.00;40.50;;;;;8.25;58.06;103647.44;5111919;27;49730;-72
2022/01/22 10:31:03;;;;;;;;;48.25;38.75;;;;;8.33;57.57;103658.50;5105172;27;49968;-75
2022/01/22 10:33:34;;;;;;;;;42.00;38.00;;;;;8.26;57.44;103638.78;5099078;27;50028;-78
2022/01/22 10:36:16;;;;;;;;;32.25;30.25;;;;;8.26;57.00;103630.94;5110994;27;49884;-73
2022/01/22 10:38:46;;;;;;;;;44.25;39.25;;;;;8.44;57.43;103648.88;5111871;27;49877;-73
2022/01/22 10:41:13;;;;;;;;;42.00;37.25;;;;;8.47;57.64;103644.75;5133652;27;49797;-73
2022/01/22 10:43:44;;;;;;;;;41.50;38.00;;;;;8.50;57.19;103649.34;5114782;27;49720;-65
2022/01/22 10:48:53;;;;;;;;;34.50;28.25;;;;;8.34;56.85;103636.75;5133878;27;49758;-64
2022/01/22 10:51:19;;;;;;;;;31.25;30.00;;;;;8.33;56.55;103643.69;5133916;27;49752;-70
2022/01/22 10:53:49;;;;;;;;;34.00;31.75;;;;;8.41;56.74;103652.16;5115457;27;50111;-66
2022/01/22 10:56:19;;;;;;;;;36.25;31.25;;;;;8.43;56.91;103637.47;5133524;27;49933;-66
2022/01/22 10:59:05;;;;;;;;;29.25;27.25;;;;;8.47;56.58;103631.66;5133402;27;49843;-74
2022/01/22 11:01:54;;;;;;;;;35.00;34.25;;;;;8.49;57.07;103618.69;5133807;27;49753;-66
2022/01/22 11:04:40;;;;;;;;;32.75;31.00;;;;;8.62;56.67;103626.69;5137997;27;49955;-65
2022/01/22 11:07:08;;;;;;;;;43.00;38.25;;;;;8.72;56.78;103615.19;5133157;27;50763;-68
2022/01/22 11:09:34;;;;;;;;;35.25;30.00;;;;;8.92;56.35;103628.03;5133388;27;49809;-66
2022/01/22 11:12:03;;;;;;;;;34.25;33.50;;;;;8.87;55.94;103616.28;5133703;27;49673;-70
2022/01/22 11:14:30;;;;;;;;;41.50;37.00;;;;;8.88;56.08;103612.91;5101050;27;50108;-67
2022/01/22 11:16:56;;;;;;;;;35.50;30.25;;;;;9.03;56.46;103624.47;5096367;27;51669;-66
2022/01/22 11:19:30;;;;;;;;;31.25;26.25;;;;;9.05;55.61;103615.00;5113351;27;49684;-66
2022/01/22 11:21:57;;;;;;;;;36.25;27.25;;;;;8.67;56.62;103532.72;5105526;27;50026;-66
2022/01/22 11:24:25;;;;;;;;;26.50;26.50;;;;;9.15;55.63;103620.09;5113706;27;49777;-66
2022/01/22 11:26:54;;;;;;;;;28.50;27.25;;;;;9.17;55.96;103615.91;5113093;27;49881;-66
2022/01/22 11:29:25;;;;;;;;;29.50;27.75;;;;;9.17;55.25;103608.03;5113167;27;49927;-66
2022/01/22 11:31:52;;;;;;;;;28.50;26.00;;;;;9.08;55.48;103596.00;5108413;27;50021;-62
2022/01/22 11:34:23;;;;;;;;;25.25;25.25;;;;;9.22;54.62;103612.69;5113159;27;49636;-62
2022/01/22 11:37:02;;;;;;;;;27.25;25.00;;;;;9.10;55.41;103576.94;5112896;27;50777;-62
2022/01/22 11:39:28;;;;;;;;;32.25;30.00;;;;;9.29;55.39;103604.47;5112905;27;49662;-66
2022/01/22 11:41:58;;;;;;;;;37.00;32.25;;;;;9.41;54.23;103611.50;5112863;27;49842;-66
2022/01/22 11:44:24;;;;;;;;;33.75;29.75;;;;;9.39;54.68;103607.84;5112841;27;49831;-66
2022/01/22 11:46:58;;;;;;;;;38.75;34.25;;;;;9.30;54.17;103587.94;5112748;27;50963;-65
2022/01/22 11:49:30;;;;;;;;;34.75;30.50;;;;;9.45;54.15;103607.34;5113084;27;49860;-68
2022/01/22 11:52:22;;;;;;;;;32.25;29.25;;;;;9.36;54.79;103584.06;5113189;27;49858;-68
2022/01/22 11:54:49;;;;;;;;;31.00;26.75;;;;;9.37;54.64;103600.69;5114284;27;49671;-68
2022/01/22 11:57:15;;;;;;;;;31.00;27.50;;;;;9.15;55.71;103569.41;5113537;27;51138;-71
2022/01/22 11:59:43;;;;;;;;;32.50;29.75;;;;;9.36;55.02;103588.34;5119036;27;49865;-72
2022/01/22 12:02:15;;;;;;;;;30.25;23.50;;;;;9.50;54.86;103603.38;5119915;27;49711;-68
2022/01/22 12:04:40;;;;;;;;;32.25;29.75;;;;;9.51;54.52;103605.19;5132992;27;49982;-70
2022/01/22 12:07:07;;;;;;;;;30.50;29.75;;;;;9.52;54.85;103593.88;5132600;27;50541;-76
2022/01/22 12:09:42;;;;;;;;;42.00;37.00;;;;;9.56;54.10;103593.31;5133087;27;49997;-75
2022/01/22 12:15:15;;;;;;;;;28.50;24.75;;;;;9.69;54.66;103587.19;5132873;27;49878;-70
2022/01/22 12:17:47;;;;;;;;;34.75;31.25;;;;;9.65;54.19;103591.34;5119865;27;51365;-71
2022/01/22 12:23:05;;;;;;;;;59.00;44.50;;;;;9.66;54.04;103602.75;5112458;27;49961;-75
2022/01/22 12:25:30;;;;;;;;;43.75;38.50;;;;;9.64;54.07;103583.34;5112607;27;49771;-69
2022/01/22 12:27:57;;;;;;;;;25.50;23.25;;;;;9.40;53.91;103548.47;5112061;27;50902;-69
2022/01/22 12:30:44;;;;;;;;;33.00;27.00;;;;;9.58;54.52;103578.59;5110641;27;50068;-72
2022/01/22 12:33:14;;;;;;;;;34.25;31.00;;;;;9.63;54.56;103584.13;5112376;27;49874;-69
2022/01/22 12:35:40;;;;;;;;;31.25;28.50;;;;;9.71;54.62;103573.38;5112566;27;49975;-69
2022/01/22 12:38:31;;;;;;;;;35.00;28.50;;;;;9.80;53.90;103559.97;5111907;27;50928;-70
2022/01/22 12:44:11;;;;;;;;;32.75;30.50;;;;;9.86;53.21;103557.78;5112641;27;49751;-69
2022/01/22 12:46:37;;;;;;;;;34.25;30.75;;;;;9.86;53.49;103554.25;5132239;27;49595;-71
2022/01/22 12:49:05;;;;;;;;;42.50;38.50;;;;;9.86;54.10;103535.91;5131653;27;49902;-69
2022/01/22 12:51:32;;;;;;;;;35.00;33.00;;;;;9.94;53.25;103563.53;5132101;27;49778;-70
2022/01/22 12:53:57;;;;;;;;;32.00;28.50;;;;;9.81;53.66;103525.06;5113357;27;50301;-69
2022/01/22 12:59:06;;;;;;;;;33.50;28.00;;;;;10.00;53.66;103550.84;5131312;27;49987;-70
2022/01/22 13:01:34;;;;;;;;;28.25;25.50;;;;;9.95;53.62;103545.28;5131604;27;49761;-68
2022/01/22 13:04:03;;;;;;;;;39.25;37.50;;;;;9.87;53.49;103527.22;5129303;27;49844;-68
2022/01/22 13:06:47;;;;;;;;;31.50;30.25;;;;;9.99;53.43;103551.66;5107159;27;49892;-70
2022/01/22 13:09:14;;;;;;;;;31.75;30.50;;;;;9.99;54.13;103543.78;5111822;27;50537;-71
2022/01/22 13:11:47;;;;;;;;;33.25;29.75;;;;;9.90;52.95;103535.28;5111747;27;49630;-69
2022/01/22 13:14:34;;;;;;;;;30.25;26.50;;;;;9.96;53.35;103547.13;5111436;27;49830;-69